Airport Information

KTIW - Tacoma Narrows Airport

KTIW 160753Z AUTO 00000KT 4SM BR CLR 02/01 A2978 RMK AO2 SLP089 T00170011 400500006


  • General Information

  • Coordinates: N 47°16'4"/ W 122°34'41"
  • Location: N/A
  • Surveyed Elevation: 294 MSL

Operations

Flow Name Active Runways Conditions

Green background denotes normal operations.


Common Frequencies

Callsign Frequency Position Name

More at the Document Center


Charts